createdAt,value
2023-01-02T00:03:49.366Z,99830.19
2023-01-02T00:08:57.749Z,99823.75
2023-01-02T00:14:08.708Z,99816.36
2023-01-02T00:19:16.528Z,99810.41
2023-01-02T00:24:26.193Z,99811.88
2023-01-02T00:29:33.729Z,99816.81
2023-01-02T00:34:41.725Z,99813.85
2023-01-02T00:39:49.293Z,99816.92
2023-01-02T00:44:57.433Z,99814.06
2023-01-02T00:50:06.620Z,99816.17
2023-01-02T00:55:17.362Z,99812.84
2023-01-02T01:00:29.424Z,99811.56
2023-01-02T01:05:40.061Z,99812.88
2023-01-02T01:10:47.592Z,99812.30
2023-01-02T01:15:56.290Z,99802.56
2023-01-02T01:21:12.902Z,99801.17
2023-01-02T01:26:21.641Z,99798.45
2023-01-02T01:31:30.002Z,99797.75
2023-01-02T01:36:41.620Z,99787.30
2023-01-02T01:41:49.516Z,99789.17
2023-01-02T01:46:57.730Z,99790.48
2023-01-02T01:52:10.247Z,99784.76
2023-01-02T01:57:21.593Z,99781.55
2023-01-02T02:02:31.532Z,99777.02
2023-01-02T02:10:25.157Z,99773.61
2023-01-02T02:15:42.249Z,99780.02
2023-01-02T02:20:59.412Z,99775.56
2023-01-02T02:26:26.666Z,99771.85
2023-01-02T02:31:42.241Z,99775.70
2023-01-02T02:37:13.943Z,99776.59
2023-01-02T02:42:33.150Z,99779.00
2023-01-02T02:47:53.994Z,99777.94
2023-01-02T02:53:09.475Z,99764.12
2023-01-02T02:58:20.444Z,99751.18
2023-01-02T03:03:29.483Z,99740.45
2023-01-02T03:08:43.642Z,99750.48
2023-01-02T03:14:03.722Z,99749.70
2023-01-02T03:19:16.568Z,99750.80
2023-01-02T03:24:28.225Z,99758.98
2023-01-02T03:29:40.021Z,99757.56
2023-01-02T03:34:50.349Z,99755.80
2023-01-02T03:40:04.456Z,99757.81
2023-01-02T03:45:20.661Z,99754.63
2023-01-02T03:50:33.242Z,99744.63
2023-01-02T03:55:43.469Z,99738.34
2023-01-02T04:00:57.945Z,99737.70
2023-01-02T04:17:14.271Z,99731.84
2023-01-02T04:22:26.980Z,99728.09
2023-01-02T04:27:39.401Z,99723.66
2023-01-02T04:32:50.185Z,99729.39
2023-01-02T04:37:59.157Z,99729.95
2023-01-02T04:43:08.929Z,99723.33
2023-01-02T04:48:16.715Z,99728.88
2023-01-02T04:53:25.454Z,99727.29
2023-01-02T04:58:33.579Z,99712.16
2023-01-02T05:03:44.154Z,99708.56
2023-01-02T05:08:52.266Z,99706.55
2023-01-02T05:14:06.937Z,99696.23
2023-01-02T05:19:17.579Z,99688.09
2023-01-02T05:24:26.169Z,99683.92
2023-01-02T05:29:34.193Z,99680.08
2023-01-02T05:34:41.966Z,99681.60
2023-01-02T05:39:49.699Z,99670.72
2023-01-02T05:44:57.950Z,99672.18
2023-01-02T05:50:06.035Z,99675.20
2023-01-02T05:55:14.099Z,99663.54
2023-01-02T06:00:22.561Z,99660.08
2023-01-02T06:05:31.721Z,99665.73
2023-01-02T06:10:39.462Z,99661.89
2023-01-02T06:15:47.538Z,99661.16
2023-01-02T06:21:00.413Z,99656.98
2023-01-02T06:26:11.820Z,99657.67
2023-01-02T06:31:22.696Z,99661.34
2023-01-02T06:36:33.489Z,99665.91
2023-01-02T06:41:41.599Z,99672.62
2023-01-02T06:46:49.699Z,99678.11
2023-01-02T06:51:58.060Z,99683.19
2023-01-02T06:57:06.468Z,99685.06
2023-01-02T07:02:16.495Z,99688.17
2023-01-02T07:07:25.730Z,99692.76
2023-01-02T07:12:36.048Z,99700.46
2023-01-02T07:17:43.558Z,99696.73
2023-01-02T07:22:57.747Z,99695.92
2023-01-02T07:28:08.006Z,99698.02
2023-01-02T07:33:18.887Z,99697.10
2023-01-02T07:38:29.322Z,99695.45
2023-01-02T07:43:38.307Z,99688.98
2023-01-02T07:48:46.020Z,99689.17
2023-01-02T07:53:54.977Z,99687.95
2023-01-02T08:02:25.027Z,99684.55
2023-01-02T08:07:34.484Z,99687.28
2023-01-02T08:12:45.792Z,99685.00
2023-01-02T08:17:54.047Z,99685.20
2023-01-02T08:23:03.847Z,99691.16
2023-01-02T08:28:11.565Z,99692.90
2023-01-02T08:33:19.814Z,99691.07
2023-01-02T08:38:27.807Z,99691.28
2023-01-02T08:43:36.574Z,99688.18
2023-01-02T08:48:47.048Z,99686.39
2023-01-02T08:53:58.163Z,99686.54
2023-01-02T08:59:08.813Z,99682.23
2023-01-02T09:04:16.542Z,99676.27
2023-01-02T09:09:28.045Z,99665.55
2023-01-02T09:14:37.396Z,99666.05
2023-01-02T09:19:45.667Z,99663.23
2023-01-02T09:24:53.317Z,99661.41
2023-01-02T09:30:02.801Z,99649.83
2023-01-02T09:35:12.513Z,99642.27
2023-01-02T09:40:20.424Z,99637.10
2023-01-02T09:45:30.686Z,99632.46
2023-01-02T09:50:39.645Z,99616.45
2023-01-02T09:55:56.855Z,99612.91
2023-01-02T10:01:05.351Z,99613.05
2023-01-02T10:06:18.447Z,99607.60
2023-01-02T10:11:35.266Z,99608.63
2023-01-02T10:16:46.244Z,99606.52
2023-01-02T10:22:17.735Z,99594.17
2023-01-02T10:27:30.688Z,99585.70
2023-01-02T10:36:02.341Z,99578.35
2023-01-02T10:41:10.216Z,99565.58
2023-01-02T10:46:17.479Z,99559.99
2023-01-02T10:51:25.456Z,99550.92
2023-01-02T10:56:35.818Z,99539.88
2023-01-02T11:01:54.050Z,99535.21
2023-01-02T11:07:03.922Z,99525.31
2023-01-02T11:12:14.762Z,99520.47
2023-01-02T11:17:25.151Z,99517.87
2023-01-02T11:22:38.672Z,99514.69
2023-01-02T11:27:47.070Z,99500.20
2023-01-02T11:33:07.098Z,99491.80
2023-01-02T11:38:30.174Z,99487.31
2023-01-02T11:43:52.312Z,99480.81
2023-01-02T11:49:05.142Z,99474.08
2023-01-02T11:54:20.967Z,99466.83
2023-01-02T11:59:37.774Z,99464.37
2023-01-02T12:04:44.989Z,99462.86
2023-01-02T12:24:34.682Z,99451.70
2023-01-02T12:30:09.860Z,99449.14
2023-01-02T12:35:36.229Z,99448.48
2023-01-02T12:40:59.906Z,99445.84
2023-01-02T12:46:18.769Z,99441.52
2023-01-02T12:51:31.395Z,99437.77
2023-01-02T12:56:46.275Z,99439.11
2023-01-02T13:02:06.912Z,99441.05
2023-01-02T13:07:19.703Z,99434.77
2023-01-02T13:12:29.895Z,99439.38
2023-01-02T13:17:58.233Z,99442.46
2023-01-02T13:23:32.557Z,99453.84
2023-01-02T13:28:45.372Z,99454.27
2023-01-02T13:33:58.735Z,99459.71
2023-01-02T13:39:18.662Z,99460.02
2023-01-02T13:44:39.320Z,99454.41
2023-01-02T13:49:50.535Z,99456.38
2023-01-02T13:55:32.603Z,99445.99
2023-01-02T14:00:51.617Z,99455.67
2023-01-02T14:06:28.847Z,99452.52
2023-01-02T14:11:55.736Z,99449.98
2023-01-02T14:17:16.185Z,99449.69
2023-01-02T14:22:25.061Z,99452.92
2023-01-02T14:27:36.549Z,99460.11
2023-01-02T14:32:47.443Z,99461.30
2023-01-02T14:37:57.500Z,99460.83
2023-01-02T14:43:27.063Z,99462.48
2023-01-02T14:48:41.735Z,99470.60
2023-01-02T14:53:53.545Z,99470.60
2023-01-02T14:59:03.728Z,99471.58
2023-01-02T15:04:22.915Z,99470.79
2023-01-02T15:09:34.089Z,99477.70
2023-01-02T15:14:44.295Z,99483.18
2023-01-02T15:19:55.187Z,99482.91
2023-01-02T15:25:04.828Z,99487.80
2023-01-02T15:30:30.563Z,99483.52
2023-01-02T15:35:39.229Z,99489.39
2023-01-02T15:40:47.030Z,99491.80
2023-01-02T15:45:58.313Z,99493.58
2023-01-02T15:51:06.426Z,99496.70
2023-01-02T16:04:28.976Z,99506.46
2023-01-02T16:09:38.319Z,99512.05
2023-01-02T16:14:50.992Z,99513.14
2023-01-02T16:20:01.971Z,99511.06
2023-01-02T16:25:17.323Z,99512.38
2023-01-02T16:30:39.088Z,99511.20
2023-01-02T16:36:00.566Z,99505.98
2023-01-02T16:41:12.874Z,99504.36
2023-01-02T16:46:20.834Z,99510.79
2023-01-02T16:51:29.629Z,99508.85
2023-01-02T16:56:37.851Z,99513.71
2023-01-02T17:01:45.652Z,99512.48
2023-01-02T17:06:56.374Z,99503.88
2023-01-02T17:12:04.978Z,99502.80
2023-01-02T17:17:13.414Z,99501.18
2023-01-02T17:22:21.340Z,99502.69
2023-01-02T17:27:31.694Z,99512.83
2023-01-02T17:32:39.890Z,99516.58
2023-01-02T17:37:50.284Z,99521.23
2023-01-02T17:43:00.166Z,99515.88
2023-01-02T17:48:12.224Z,99515.23
2023-01-02T17:53:21.471Z,99498.39
2023-01-02T17:58:30.415Z,99491.66
2023-01-02T18:03:38.777Z,99490.92
2023-01-02T18:08:48.765Z,99491.68
2023-01-02T18:13:59.429Z,99491.89
2023-01-02T18:19:12.626Z,99500.00
2023-01-02T18:24:27.321Z,99502.55
2023-01-02T18:29:35.130Z,99493.40
2023-01-02T18:34:48.616Z,99497.04
2023-01-02T18:40:01.732Z,99498.05
2023-01-02T18:45:18.836Z,99503.38
2023-01-02T18:50:33.588Z,99506.61
2023-01-02T18:55:42.206Z,99506.95
2023-01-02T19:02:59.839Z,99502.98
2023-01-02T19:08:18.205Z,99517.83
2023-01-02T19:13:25.899Z,99516.09
2023-01-02T19:18:36.701Z,99512.61
2023-01-02T19:23:46.278Z,99518.69
2023-01-02T19:28:56.827Z,99515.15
2023-01-02T19:34:02.928Z,99519.48
2023-01-02T19:39:25.038Z,99522.67
2023-01-02T19:44:29.217Z,99524.98
2023-01-02T19:49:34.738Z,99514.86
2023-01-02T19:54:39.936Z,99506.68
2023-01-02T19:59:48.520Z,99506.00
2023-01-02T20:04:55.650Z,99516.12
2023-01-02T20:10:00.195Z,99513.11
2023-01-02T20:15:09.920Z,99517.14
2023-01-02T20:30:12.906Z,99529.70
2023-01-02T20:35:20.302Z,99522.33
2023-01-02T20:40:28.711Z,99524.80
2023-01-02T20:45:36.065Z,99536.89
2023-01-02T20:50:43.375Z,99528.45
2023-01-02T20:55:51.490Z,99533.11
2023-01-02T21:02:26.356Z,99542.67
2023-01-02T21:07:34.024Z,99539.06
2023-01-02T21:12:59.235Z,99546.26
2023-01-02T21:18:10.379Z,99552.23
2023-01-02T21:23:18.586Z,99555.27
2023-01-02T21:28:27.390Z,99556.99
2023-01-02T21:33:36.146Z,99565.23
2023-01-02T21:38:45.480Z,99576.33
2023-01-02T21:43:53.195Z,99579.18
2023-01-02T21:49:01.725Z,99593.45
2023-01-02T21:54:09.680Z,99603.19
2023-01-02T21:59:17.569Z,99609.58
2023-01-02T22:04:28.450Z,99615.71
2023-01-02T22:09:36.696Z,99622.02
2023-01-02T22:14:44.397Z,99622.36
2023-01-02T22:19:52.505Z,99633.45
2023-01-02T22:25:01.765Z,99630.02
2023-01-02T22:30:24.308Z,99638.09
2023-01-02T22:35:36.834Z,99639.29
2023-01-02T22:40:44.441Z,99634.13
2023-01-02T22:45:56.762Z,99629.29
2023-01-02T22:51:05.587Z,99628.92
2023-01-02T22:56:19.772Z,99632.50
2023-01-02T23:01:32.921Z,99636.55
2023-01-02T23:07:05.142Z,99646.95
2023-01-02T23:12:08.900Z,99651.90
2023-01-02T23:17:34.253Z,99659.70
2023-01-02T23:22:42.246Z,99662.49
2023-01-02T23:27:50.457Z,99663.16
2023-01-02T23:32:57.928Z,99670.34
2023-01-02T23:38:05.683Z,99671.55
2023-01-02T23:43:14.040Z,99680.14
2023-01-02T23:48:22.214Z,99686.97
2023-01-02T23:53:30.650Z,99685.78
2023-01-02T23:58:38.280Z,99680.61
